createdAt,value
2024-03-16T00:00:00.936Z,93.79
2024-03-16T00:00:20.986Z,93.89
2024-03-16T00:00:30.959Z,93.99
2024-03-16T00:00:40.951Z,93.99
2024-03-16T00:00:50.987Z,93.99
2024-03-16T00:01:01.063Z,93.99
2024-03-16T00:01:11.098Z,93.99
2024-03-16T00:01:31.007Z,94.10
2024-03-16T00:01:40.923Z,94.10
2024-03-16T00:01:50.967Z,94.10
2024-03-16T00:02:00.977Z,94.10
2024-03-16T00:02:10.956Z,94.10
2024-03-16T00:02:20.928Z,94.10
2024-03-16T00:02:40.908Z,94.20
2024-03-16T00:02:50.917Z,94.20
2024-03-16T00:03:01.178Z,94.20
2024-03-16T00:03:10.936Z,94.30
2024-03-16T00:03:20.927Z,94.30
2024-03-16T00:03:31.532Z,94.30
2024-03-16T00:03:51.005Z,94.40
2024-03-16T00:04:00.986Z,94.40
2024-03-16T00:04:10.949Z,94.40
2024-03-16T00:04:20.900Z,94.40
2024-03-16T00:04:30.917Z,94.30
2024-03-16T00:04:40.938Z,94.30
2024-03-16T00:05:00.894Z,94.40
2024-03-16T00:05:10.914Z,94.40
2024-03-16T00:05:20.902Z,94.40
2024-03-16T00:05:30.924Z,94.40
2024-03-16T00:05:40.912Z,94.40
2024-03-16T00:05:50.888Z,94.40
2024-03-16T00:06:00.952Z,94.51
2024-03-16T00:06:20.914Z,94.55
2024-03-16T00:06:30.930Z,94.65
2024-03-16T00:06:40.898Z,94.76
2024-03-16T00:06:50.924Z,94.76
2024-03-16T00:07:00.938Z,94.76
2024-03-16T00:07:11.058Z,94.76
2024-03-16T00:07:30.892Z,94.76
2024-03-16T00:07:40.878Z,94.85
2024-03-16T00:07:50.874Z,94.85
2024-03-16T00:08:00.892Z,94.85
2024-03-16T00:08:10.872Z,94.85
2024-03-16T00:08:20.884Z,94.85
2024-03-16T00:08:40.875Z,94.96
2024-03-16T00:08:50.903Z,94.96
2024-03-16T00:09:00.896Z,94.96
2024-03-16T00:09:10.864Z,94.96
2024-03-16T00:09:20.875Z,95.06
2024-03-16T00:09:30.888Z,95.06
2024-03-16T00:09:40.961Z,95.06
2024-03-16T00:10:00.959Z,95.17
2024-03-16T00:10:10.929Z,95.17
2024-03-16T00:10:20.862Z,95.17
2024-03-16T00:10:30.874Z,95.17
2024-03-16T00:10:40.895Z,95.17
2024-03-16T00:10:50.924Z,95.17
2024-03-16T00:11:10.932Z,95.27
2024-03-16T00:11:20.886Z,95.27
2024-03-16T00:11:30.879Z,95.27
2024-03-16T00:11:40.928Z,95.27
2024-03-16T00:11:50.844Z,95.27
2024-03-16T00:12:00.878Z,95.27
2024-03-16T00:12:20.841Z,95.37
2024-03-16T00:12:30.870Z,95.37
2024-03-16T00:12:40.861Z,95.47
2024-03-16T00:12:50.861Z,95.47
2024-03-16T00:13:00.956Z,95.47
2024-03-16T00:13:10.900Z,95.57
2024-03-16T00:13:30.856Z,95.57
2024-03-16T00:13:40.845Z,95.57
2024-03-16T00:13:50.838Z,95.68
2024-03-16T00:14:00.836Z,95.68
2024-03-16T00:14:10.851Z,95.68
2024-03-16T00:14:20.836Z,95.68
2024-03-16T00:14:40.832Z,95.78
2024-03-16T00:14:50.821Z,95.78
2024-03-16T00:15:00.832Z,95.78
2024-03-16T00:15:10.824Z,95.78
2024-03-16T00:15:20.828Z,95.89
2024-03-16T00:15:30.872Z,95.89
2024-03-16T00:15:41.543Z,95.89
2024-03-16T00:16:00.912Z,95.98
2024-03-16T00:16:10.893Z,95.98
2024-03-16T00:16:20.824Z,95.98
2024-03-16T00:16:30.808Z,95.98
2024-03-16T00:16:40.864Z,95.98
2024-03-16T00:16:50.813Z,95.98
2024-03-16T00:17:10.805Z,95.98
2024-03-16T00:17:20.817Z,96.09
2024-03-16T00:17:30.812Z,96.09
2024-03-16T00:17:40.824Z,96.09
2024-03-16T00:17:50.910Z,96.09
2024-03-16T00:18:00.830Z,96.09
2024-03-16T00:18:11.530Z,96.09
2024-03-16T00:18:30.836Z,96.09
2024-03-16T00:18:40.901Z,95.98
2024-03-16T00:18:50.842Z,95.98
2024-03-16T00:19:00.918Z,96.09
2024-03-16T00:19:10.850Z,96.09
2024-03-16T00:19:20.818Z,96.09
2024-03-16T00:19:30.844Z,96.09
2024-03-16T00:19:50.797Z,96.09
2024-03-16T00:20:00.794Z,96.19
2024-03-16T00:20:10.791Z,96.19
2024-03-16T00:20:20.849Z,96.19
2024-03-16T00:20:30.788Z,96.19
2024-03-16T00:20:40.785Z,96.30
2024-03-16T00:21:00.804Z,96.30
2024-03-16T00:21:10.778Z,96.30
2024-03-16T00:21:20.776Z,96.40
2024-03-16T00:21:30.818Z,96.40
2024-03-16T00:21:40.840Z,96.40
2024-03-16T00:21:50.811Z,96.40
2024-03-16T00:22:00.980Z,96.40
2024-03-16T00:22:20.799Z,96.50
2024-03-16T00:22:30.769Z,96.50
2024-03-16T00:22:40.769Z,96.50
2024-03-16T00:22:50.785Z,96.60
2024-03-16T00:23:00.830Z,96.60
2024-03-16T00:23:10.777Z,96.60
2024-03-16T00:23:30.784Z,96.60
2024-03-16T00:23:40.762Z,96.60
2024-03-16T00:23:50.760Z,96.60
2024-03-16T00:24:00.771Z,96.60
2024-03-16T00:24:10.755Z,96.70
2024-03-16T00:24:20.752Z,96.70
2024-03-16T00:24:40.803Z,96.85
2024-03-16T00:24:50.840Z,96.81
2024-03-16T00:25:00.808Z,96.85
2024-03-16T00:25:10.791Z,96.95
2024-03-16T00:25:20.759Z,96.95
2024-03-16T00:25:30.747Z,96.95
2024-03-16T00:25:50.740Z,97.06
2024-03-16T00:26:00.751Z,97.06
2024-03-16T00:26:10.746Z,97.06
2024-03-16T00:26:20.776Z,97.06
2024-03-16T00:26:30.760Z,97.16
2024-03-16T00:26:40.736Z,97.16
2024-03-16T00:26:50.754Z,97.16
2024-03-16T00:27:10.729Z,97.27
2024-03-16T00:27:20.734Z,97.27
2024-03-16T00:27:30.765Z,97.27
2024-03-16T00:27:41.536Z,97.27
2024-03-16T00:27:50.786Z,97.27
2024-03-16T00:28:00.836Z,97.37
2024-03-16T00:28:20.739Z,97.37
2024-03-16T00:28:30.758Z,97.47
2024-03-16T00:28:40.735Z,97.47
2024-03-16T00:28:50.718Z,97.47
2024-03-16T00:29:00.734Z,97.57
2024-03-16T00:29:10.714Z,97.57
2024-03-16T00:29:30.730Z,97.67
2024-03-16T00:29:40.723Z,97.67
2024-03-16T00:29:50.712Z,97.67
2024-03-16T00:30:00.718Z,97.78
2024-03-16T00:30:10.749Z,97.78
2024-03-16T00:30:20.715Z,97.78
2024-03-16T00:30:40.835Z,97.78
2024-03-16T00:30:50.737Z,97.88
2024-03-16T00:31:02.143Z,97.88
2024-03-16T00:31:10.738Z,97.88
2024-03-16T00:31:20.801Z,97.88
2024-03-16T00:31:30.696Z,97.99
2024-03-16T00:31:51.514Z,97.99
2024-03-16T00:32:00.719Z,97.99
2024-03-16T00:32:10.695Z,97.99
2024-03-16T00:32:21.522Z,97.99
2024-03-16T00:32:30.711Z,97.99
2024-03-16T00:32:40.740Z,98.08
2024-03-16T00:33:00.724Z,98.08
2024-03-16T00:33:10.713Z,98.08
2024-03-16T00:33:20.695Z,98.08
2024-03-16T00:33:30.742Z,98.19
2024-03-16T00:33:40.736Z,98.19
2024-03-16T00:33:50.713Z,98.19
2024-03-16T00:34:10.739Z,98.19
2024-03-16T00:34:20.749Z,98.19
2024-03-16T00:34:30.683Z,98.19
2024-03-16T00:34:40.684Z,98.19
2024-03-16T00:34:50.696Z,98.08
2024-03-16T00:35:00.699Z,98.08
2024-03-16T00:35:20.692Z,98.08
2024-03-16T00:35:30.666Z,98.08
2024-03-16T00:35:40.674Z,98.08
2024-03-16T00:35:50.894Z,98.08
2024-03-16T00:36:00.687Z,98.13
2024-03-16T00:36:10.662Z,98.08
2024-03-16T00:36:30.706Z,98.19
2024-03-16T00:36:40.700Z,98.19
2024-03-16T00:36:50.705Z,98.19
2024-03-16T00:37:00.723Z,98.19
2024-03-16T00:37:10.706Z,98.19
2024-03-16T00:37:20.663Z,98.19
2024-03-16T00:37:40.682Z,98.24
2024-03-16T00:37:50.649Z,98.19
2024-03-16T00:38:00.652Z,98.33
2024-03-16T00:38:10.656Z,98.33
2024-03-16T00:38:21.515Z,98.33
2024-03-16T00:38:30.653Z,98.33
2024-03-16T00:38:50.786Z,98.44
2024-03-16T00:39:00.672Z,98.44
2024-03-16T00:39:10.639Z,98.44
2024-03-16T00:39:20.643Z,98.39
2024-03-16T00:39:30.663Z,98.54
2024-03-16T00:39:40.728Z,98.54
2024-03-16T00:40:01.313Z,98.54
2024-03-16T00:40:10.859Z,98.54
2024-03-16T00:40:20.993Z,98.54
2024-03-16T00:40:30.654Z,98.54
2024-03-16T00:40:40.704Z,98.54
2024-03-16T00:40:50.623Z,98.65
2024-03-16T00:41:10.691Z,98.65
2024-03-16T00:41:20.630Z,98.54
2024-03-16T00:41:30.631Z,98.65
2024-03-16T00:41:40.636Z,98.65
2024-03-16T00:41:50.625Z,98.65
2024-03-16T00:42:00.636Z,98.65
2024-03-16T00:42:10.677Z,98.65
2024-03-16T00:42:20.628Z,98.65
2024-03-16T00:42:40.658Z,98.65
2024-03-16T00:42:50.711Z,98.65
2024-03-16T00:43:00.675Z,98.65
2024-03-16T00:43:11.190Z,98.65
2024-03-16T00:43:20.644Z,98.65
2024-03-16T00:43:30.607Z,98.65
2024-03-16T00:43:40.623Z,98.65
2024-03-16T00:44:00.615Z,98.65
2024-03-16T00:44:10.624Z,98.65
2024-03-16T00:44:20.642Z,98.65
2024-03-16T00:44:30.630Z,98.65
2024-03-16T00:44:40.630Z,98.65
2024-03-16T00:44:50.610Z,98.75
2024-03-16T00:45:10.605Z,98.75
2024-03-16T00:45:20.611Z,98.75
2024-03-16T00:45:30.640Z,98.75
2024-03-16T00:45:40.683Z,98.75
2024-03-16T00:45:50.637Z,98.75
2024-03-16T00:46:00.711Z,98.85
2024-03-16T00:46:20.621Z,98.85
2024-03-16T00:46:30.589Z,98.85
2024-03-16T00:46:40.613Z,98.85
2024-03-16T00:46:50.596Z,98.85
2024-03-16T00:47:00.584Z,98.85
2024-03-16T00:47:10.629Z,98.75
2024-03-16T00:47:30.614Z,98.75
2024-03-16T00:47:40.759Z,98.75
2024-03-16T00:47:50.673Z,98.75
2024-03-16T00:48:00.640Z,98.75
2024-03-16T00:48:10.620Z,98.75
2024-03-16T00:48:20.576Z,98.75
2024-03-16T00:48:40.614Z,98.75
2024-03-16T00:48:50.591Z,98.75
2024-03-16T00:49:00.630Z,98.75
2024-03-16T00:49:10.619Z,98.75
2024-03-16T00:49:20.581Z,98.75
2024-03-16T00:49:30.570Z,98.75
2024-03-16T00:49:50.566Z,98.65
2024-03-16T00:50:00.557Z,98.65
2024-03-16T00:50:10.589Z,98.65
2024-03-16T00:50:20.554Z,98.65
2024-03-16T00:50:30.560Z,98.65
2024-03-16T00:50:40.560Z,98.65
2024-03-16T00:51:00.550Z,98.75
2024-03-16T00:51:10.553Z,98.75
2024-03-16T00:51:20.547Z,98.75
2024-03-16T00:51:31.256Z,98.65
2024-03-16T00:51:40.633Z,98.65
2024-03-16T00:51:50.587Z,98.65
2024-03-16T00:52:10.575Z,98.65
2024-03-16T00:52:20.573Z,98.65
2024-03-16T00:52:30.548Z,98.65
2024-03-16T00:52:40.548Z,98.65
2024-03-16T00:52:50.543Z,98.65
2024-03-16T00:53:00.538Z,98.54
2024-03-16T00:53:20.534Z,98.54
2024-03-16T00:53:30.546Z,98.54
2024-03-16T00:53:40.536Z,98.54
2024-03-16T00:53:50.547Z,98.44
2024-03-16T00:54:00.548Z,98.44
2024-03-16T00:54:10.534Z,98.44
2024-03-16T00:54:30.599Z,98.44
2024-03-16T00:54:40.641Z,98.44
2024-03-16T00:54:51.268Z,98.44
2024-03-16T00:55:00.593Z,98.44
2024-03-16T00:55:10.826Z,98.44
2024-03-16T00:55:20.566Z,98.44
2024-03-16T00:55:40.549Z,98.44
2024-03-16T00:55:50.517Z,98.44
2024-03-16T00:56:00.523Z,98.44
2024-03-16T00:56:10.514Z,98.44
2024-03-16T00:56:20.511Z,98.44
2024-03-16T00:56:30.539Z,98.44
2024-03-16T00:56:40.551Z,98.44
2024-03-16T00:57:00.510Z,98.44
2024-03-16T00:57:10.519Z,98.44
2024-03-16T00:57:20.504Z,98.44
2024-03-16T00:57:30.589Z,98.44
2024-03-16T00:57:40.693Z,98.44
2024-03-16T00:57:50.542Z,98.44
2024-03-16T00:58:10.619Z,98.44
2024-03-16T00:58:20.508Z,98.44
2024-03-16T00:58:30.512Z,98.44
2024-03-16T00:58:40.504Z,98.44
2024-03-16T00:58:50.531Z,98.44
2024-03-16T00:59:00.498Z,98.54
2024-03-16T00:59:20.691Z,98.54
2024-03-16T00:59:30.532Z,98.54
2024-03-16T00:59:40.517Z,98.54
2024-03-16T00:59:50.487Z,98.54
2024-03-16T01:00:00.531Z,98.54
2024-03-16T01:00:10.491Z,98.54
2024-03-16T01:00:30.550Z,98.54
2024-03-16T01:00:40.556Z,98.54
2024-03-16T01:00:50.607Z,98.54
2024-03-16T01:01:00.564Z,98.54
2024-03-16T01:01:10.554Z,98.54
2024-03-16T01:01:20.599Z,98.54
2024-03-16T01:01:40.513Z,98.44
2024-03-16T01:01:50.520Z,98.44
2024-03-16T01:02:00.559Z,98.44
2024-03-16T01:02:10.486Z,98.54
2024-03-16T01:02:20.469Z,98.59
2024-03-16T01:02:30.474Z,98.54
2024-03-16T01:02:50.504Z,98.54
2024-03-16T01:03:01.226Z,98.59
2024-03-16T01:03:10.475Z,98.59
2024-03-16T01:03:20.464Z,98.54
2024-03-16T01:03:30.476Z,98.59
2024-03-16T01:03:40.620Z,98.54
2024-03-16T01:04:00.483Z,98.49
2024-03-16T01:04:10.548Z,98.49
2024-03-16T01:04:21.021Z,98.49
2024-03-16T01:04:30.470Z,98.49
2024-03-16T01:04:40.540Z,98.49
2024-03-16T01:04:50.457Z,98.49
2024-03-16T01:05:10.455Z,98.38
2024-03-16T01:05:20.451Z,98.38
2024-03-16T01:05:30.454Z,98.38
2024-03-16T01:05:40.486Z,98.38
2024-03-16T01:05:50.456Z,98.38
2024-03-16T01:06:00.450Z,98.33
2024-03-16T01:06:20.439Z,98.38
2024-03-16T01:06:30.576Z,98.38
2024-03-16T01:06:40.475Z,98.28
2024-03-16T01:06:50.450Z,98.28
2024-03-16T01:07:00.530Z,98.28
2024-03-16T01:07:10.487Z,98.28
2024-03-16T01:07:31.017Z,98.28
2024-03-16T01:07:40.452Z,98.28
2024-03-16T01:07:50.429Z,98.28
2024-03-16T01:08:00.425Z,98.28
2024-03-16T01:08:10.431Z,98.38
2024-03-16T01:08:20.424Z,98.38
2024-03-16T01:08:40.422Z,98.38
2024-03-16T01:08:50.442Z,98.28
2024-03-16T01:09:01.042Z,98.18
2024-03-16T01:09:10.430Z,98.07
2024-03-16T01:09:20.414Z,97.97
2024-03-16T01:09:30.470Z,97.97
2024-03-16T01:09:40.483Z,97.87
2024-03-16T01:10:00.506Z,97.87
2024-03-16T01:10:10.520Z,97.87
2024-03-16T01:10:20.446Z,97.87
2024-03-16T01:10:31.015Z,97.87
2024-03-16T01:10:40.434Z,97.87
2024-03-16T01:10:50.425Z,97.87
2024-03-16T01:11:10.609Z,97.97
2024-03-16T01:11:20.433Z,97.97
2024-03-16T01:11:30.439Z,97.97
2024-03-16T01:11:40.406Z,97.97
2024-03-16T01:11:50.407Z,98.07
2024-03-16T01:12:00.394Z,98.07
2024-03-16T01:12:20.393Z,97.97
2024-03-16T01:12:30.433Z,97.97
2024-03-16T01:12:40.454Z,97.97
2024-03-16T01:12:50.502Z,97.87
2024-03-16T01:13:00.418Z,97.77
2024-03-16T01:13:10.455Z,97.77
2024-03-16T01:13:30.387Z,97.77
2024-03-16T01:13:40.406Z,97.77
2024-03-16T01:13:50.386Z,97.66
2024-03-16T01:14:01.152Z,97.66
2024-03-16T01:14:10.384Z,97.56
2024-03-16T01:14:20.376Z,97.56
2024-03-16T01:14:40.372Z,97.56
2024-03-16T01:14:50.399Z,97.66
2024-03-16T01:15:00.393Z,97.66
2024-03-16T01:15:10.386Z,97.66
2024-03-16T01:15:20.390Z,97.66
2024-03-16T01:15:30.406Z,97.66
2024-03-16T01:15:40.429Z,97.66
2024-03-16T01:16:00.404Z,97.66
2024-03-16T01:16:11.264Z,97.77
2024-03-16T01:16:20.369Z,97.66
2024-03-16T01:16:30.376Z,97.66
2024-03-16T01:16:40.357Z,97.66
2024-03-16T01:16:50.361Z,97.56
2024-03-16T01:17:00.402Z,97.56
2024-03-16T01:17:20.354Z,97.56
2024-03-16T01:17:30.395Z,97.56
2024-03-16T01:17:40.385Z,97.66
2024-03-16T01:17:50.368Z,97.66
2024-03-16T01:18:00.393Z,97.66
2024-03-16T01:18:10.433Z,97.66
2024-03-16T01:18:30.389Z,97.56
2024-03-16T01:18:40.397Z,97.56
2024-03-16T01:18:50.365Z,97.56
2024-03-16T01:19:00.401Z,97.56
2024-03-16T01:19:10.393Z,97.56
2024-03-16T01:19:20.340Z,97.56
2024-03-16T01:19:40.331Z,97.45
2024-03-16T01:19:50.373Z,97.45
2024-03-16T01:20:00.334Z,97.45
2024-03-16T01:20:10.455Z,97.56
2024-03-16T01:20:20.346Z,97.56
2024-03-16T01:20:30.338Z,97.56
2024-03-16T01:20:50.343Z,97.66
2024-03-16T01:21:00.337Z,97.66
2024-03-16T01:21:10.423Z,97.66
2024-03-16T01:21:20.335Z,97.66
2024-03-16T01:21:30.383Z,97.66
2024-03-16T01:21:40.367Z,97.66
2024-03-16T01:21:50.388Z,97.66
2024-03-16T01:22:10.371Z,97.77
2024-03-16T01:22:20.317Z,97.77
2024-03-16T01:22:30.324Z,97.77
2024-03-16T01:22:40.317Z,97.77
2024-03-16T01:22:51.050Z,97.77
2024-03-16T01:23:00.323Z,97.87
2024-03-16T01:23:20.316Z,97.87
2024-03-16T01:23:30.314Z,97.87
2024-03-16T01:23:40.317Z,97.87
2024-03-16T01:23:50.328Z,97.87
2024-03-16T01:24:00.304Z,97.77
2024-03-16T01:24:10.313Z,97.77
2024-03-16T01:24:30.402Z,97.77
2024-03-16T01:24:40.406Z,97.87
2024-03-16T01:24:50.339Z,97.87
2024-03-16T01:25:00.406Z,97.87
2024-03-16T01:25:10.376Z,97.97
2024-03-16T01:25:20.310Z,97.97
2024-03-16T01:25:40.300Z,97.97
2024-03-16T01:25:50.304Z,97.97
2024-03-16T01:26:00.293Z,97.97
2024-03-16T01:26:10.291Z,97.97
2024-03-16T01:26:20.370Z,97.97
2024-03-16T01:26:30.300Z,97.97
2024-03-16T01:26:50.296Z,98.12
2024-03-16T01:27:00.279Z,98.12
2024-03-16T01:27:10.286Z,98.12
2024-03-16T01:27:20.277Z,98.12
2024-03-16T01:27:30.309Z,98.12
2024-03-16T01:27:40.366Z,98.12
2024-03-16T01:28:00.370Z,98.12
2024-03-16T01:28:10.334Z,98.22
2024-03-16T01:28:20.268Z,98.12
2024-03-16T01:28:30.289Z,98.12
2024-03-16T01:28:40.270Z,98.12
2024-03-16T01:28:50.271Z,98.12
2024-03-16T01:29:10.269Z,98.22
2024-03-16T01:29:20.263Z,98.22
2024-03-16T01:29:30.278Z,98.22
2024-03-16T01:29:40.263Z,98.22
2024-03-16T01:29:50.280Z,98.22
2024-03-16T01:30:00.335Z,98.22
2024-03-16T01:30:21.040Z,98.22
2024-03-16T01:30:30.312Z,98.22
2024-03-16T01:30:41.097Z,98.22
2024-03-16T01:30:50.310Z,98.33
2024-03-16T01:31:00.441Z,98.33
2024-03-16T01:31:12.653Z,98.33
2024-03-16T01:31:21.522Z,98.33
2024-03-16T01:31:31.453Z,98.33
2024-03-16T01:31:42.201Z,98.33
2024-03-16T01:31:51.450Z,98.33
2024-03-16T01:32:01.449Z,98.33
2024-03-16T01:32:11.441Z,98.33
2024-03-16T01:32:31.537Z,98.33
2024-03-16T01:32:41.467Z,98.33
2024-03-16T01:32:52.075Z,98.33
2024-03-16T01:33:01.539Z,98.33
2024-03-16T01:33:11.526Z,98.33
2024-03-16T01:33:21.439Z,98.33
2024-03-16T01:33:41.487Z,98.43
2024-03-16T01:33:51.481Z,98.43
2024-03-16T01:34:01.496Z,98.43
2024-03-16T01:34:11.492Z,98.43
2024-03-16T01:34:22.024Z,98.43
2024-03-16T01:34:31.427Z,98.43
2024-03-16T01:34:51.441Z,98.43
2024-03-16T01:35:01.453Z,98.43
2024-03-16T01:35:11.424Z,98.43
2024-03-16T01:35:21.430Z,98.43
2024-03-16T01:35:31.421Z,98.43
2024-03-16T01:35:41.442Z,98.43
2024-03-16T01:36:01.421Z,98.43
2024-03-16T01:36:11.443Z,98.43
2024-03-16T01:36:22.023Z,98.43
2024-03-16T01:36:31.457Z,98.43
2024-03-16T01:36:41.433Z,98.37
2024-03-16T01:36:51.458Z,98.33
2024-03-16T01:37:11.540Z,98.33
2024-03-16T01:37:22.241Z,98.37
2024-03-16T01:37:31.483Z,98.33
2024-03-16T01:37:41.412Z,98.37
2024-03-16T01:37:51.445Z,98.37
2024-03-16T01:38:01.411Z,98.37
2024-03-16T01:38:21.406Z,98.47
2024-03-16T01:38:31.397Z,98.47
2024-03-16T01:38:41.401Z,98.47
2024-03-16T01:38:51.396Z,98.47
2024-03-16T01:39:01.410Z,98.47
2024-03-16T01:39:11.465Z,98.47
2024-03-16T01:39:31.448Z,98.47
2024-03-16T01:39:41.414Z,98.47
2024-03-16T01:39:51.488Z,98.47
2024-03-16T01:40:01.546Z,98.47
2024-03-16T01:40:11.408Z,98.37
2024-03-16T01:40:22.241Z,98.47
2024-03-16T01:40:41.412Z,98.37
2024-03-16T01:40:51.377Z,98.47
2024-03-16T01:41:01.384Z,98.47
2024-03-16T01:41:11.380Z,98.47
2024-03-16T01:41:21.384Z,98.47
2024-03-16T01:41:31.376Z,98.47
2024-03-16T01:41:51.379Z,98.47
2024-03-16T01:42:02.069Z,98.47
2024-03-16T01:42:11.373Z,98.47
2024-03-16T01:42:21.406Z,98.47
2024-03-16T01:42:31.401Z,98.47
2024-03-16T01:42:41.400Z,98.47
2024-03-16T01:43:01.415Z,98.47
2024-03-16T01:43:11.422Z,98.47
2024-03-16T01:43:21.405Z,98.47
2024-03-16T01:43:31.361Z,98.47
2024-03-16T01:43:41.367Z,98.47
2024-03-16T01:43:51.362Z,98.58
2024-03-16T01:44:11.385Z,98.58
2024-03-16T01:44:21.364Z,98.58
2024-03-16T01:44:31.353Z,98.58
2024-03-16T01:44:41.362Z,98.58
2024-03-16T01:44:51.396Z,98.58
2024-03-16T01:45:01.364Z,98.68
2024-03-16T01:45:21.360Z,98.68
2024-03-16T01:45:31.430Z,98.68
2024-03-16T01:45:41.384Z,98.68
2024-03-16T01:45:51.423Z,98.68
2024-03-16T01:46:01.474Z,98.68
2024-03-16T01:46:11.376Z,98.79
2024-03-16T01:46:31.337Z,98.79
2024-03-16T01:46:42.146Z,98.79
2024-03-16T01:46:51.338Z,98.79
2024-03-16T01:47:01.355Z,98.79
2024-03-16T01:47:11.334Z,98.79
2024-03-16T01:47:21.427Z,98.79
2024-03-16T01:47:41.373Z,98.88
2024-03-16T01:47:51.358Z,98.88
2024-03-16T01:48:01.375Z,98.88
2024-03-16T01:48:11.356Z,98.88
2024-03-16T01:48:22.234Z,98.88
2024-03-16T01:48:31.342Z,98.88
2024-03-16T01:48:51.390Z,98.99
2024-03-16T01:49:01.383Z,98.99
2024-03-16T01:49:11.375Z,98.99
2024-03-16T01:49:22.245Z,98.99
2024-03-16T01:49:31.316Z,98.99
2024-03-16T01:49:41.322Z,98.99
2024-03-16T01:50:01.384Z,98.99
2024-03-16T01:50:11.358Z,98.99
2024-03-16T01:50:21.328Z,98.99
2024-03-16T01:50:31.308Z,98.99
2024-03-16T01:50:41.319Z,98.99
2024-03-16T01:50:51.312Z,98.99
2024-03-16T01:51:11.309Z,98.99
2024-03-16T01:51:21.332Z,98.99
2024-03-16T01:51:31.308Z,99.09
2024-03-16T01:51:41.328Z,99.09
2024-03-16T01:51:51.370Z,99.09
2024-03-16T01:52:01.451Z,99.09
2024-03-16T01:52:21.298Z,99.09
2024-03-16T01:52:31.292Z,99.09
2024-03-16T01:52:41.320Z,99.09
2024-03-16T01:52:51.297Z,99.09
2024-03-16T01:53:01.291Z,99.09
2024-03-16T01:53:11.286Z,99.09
2024-03-16T01:53:31.299Z,99.09
2024-03-16T01:53:41.288Z,99.09
2024-03-16T01:53:51.290Z,99.09
2024-03-16T01:54:01.297Z,99.09
2024-03-16T01:54:11.281Z,99.09
2024-03-16T01:54:21.288Z,99.09
2024-03-16T01:54:41.344Z,99.09
2024-03-16T01:54:51.325Z,99.09
2024-03-16T01:55:01.379Z,99.09
2024-03-16T01:55:11.356Z,99.09
2024-03-16T01:55:21.303Z,99.09
2024-03-16T01:55:31.284Z,99.09
2024-03-16T01:55:51.293Z,99.09
2024-03-16T01:56:01.298Z,99.09
2024-03-16T01:56:11.269Z,99.19
2024-03-16T01:56:21.292Z,99.19
2024-03-16T01:56:31.261Z,99.19
2024-03-16T01:56:41.281Z,99.19
2024-03-16T01:56:51.318Z,99.19
2024-03-16T01:57:11.262Z,99.19
2024-03-16T01:57:21.270Z,99.19
2024-03-16T01:57:31.296Z,99.19
2024-03-16T01:57:41.336Z,99.19
2024-03-16T01:57:51.272Z,99.19
2024-03-16T01:58:01.334Z,99.19
2024-03-16T01:58:21.306Z,99.19
2024-03-16T01:58:31.268Z,99.19
2024-03-16T01:58:41.250Z,99.19
2024-03-16T01:58:51.244Z,99.30
2024-03-16T01:59:01.262Z,99.30
2024-03-16T01:59:11.243Z,99.19
2024-03-16T01:59:31.247Z,99.19
2024-03-16T01:59:41.250Z,99.30
2024-03-16T01:59:51.277Z,99.30
2024-03-16T02:00:01.308Z,99.30
2024-03-16T02:00:11.245Z,99.30
2024-03-16T02:00:21.242Z,99.19
2024-03-16T02:00:41.268Z,99.19
2024-03-16T02:00:51.330Z,99.19
2024-03-16T02:01:01.309Z,99.19
2024-03-16T02:01:11.376Z,99.19
2024-03-16T02:01:21.360Z,99.19
2024-03-16T02:01:31.308Z,99.19
2024-03-16T02:01:51.245Z,99.30
2024-03-16T02:02:01.294Z,99.30
2024-03-16T02:02:12.029Z,99.30
2024-03-16T02:02:21.230Z,99.30
2024-03-16T02:02:31.221Z,99.30
2024-03-16T02:02:42.069Z,99.30
2024-03-16T02:02:51.273Z,99.30
2024-03-16T02:03:22.221Z,99.40
2024-03-16T02:03:29.375Z,99.40
2024-03-16T02:03:39.378Z,99.40
2024-03-16T02:03:49.352Z,99.40
2024-03-16T02:03:59.409Z,99.40
2024-03-16T02:04:09.399Z,99.51
2024-03-16T02:04:29.316Z,99.51
2024-03-16T02:04:39.359Z,99.51
2024-03-16T02:04:49.316Z,99.51
2024-03-16T02:04:59.363Z,99.51
2024-03-16T02:05:09.389Z,99.51
2024-03-16T02:05:19.322Z,99.51
2024-03-16T02:05:39.333Z,99.60
2024-03-16T02:05:49.340Z,99.60
2024-03-16T02:05:59.304Z,99.60
2024-03-16T02:06:09.312Z,99.60
2024-03-16T02:06:19.301Z,99.60
2024-03-16T02:06:29.352Z,99.60
2024-03-16T02:06:49.307Z,99.71
2024-03-16T02:06:59.406Z,99.71
2024-03-16T02:07:09.346Z,99.71
2024-03-16T02:07:20.237Z,99.71
2024-03-16T02:07:29.306Z,99.71
2024-03-16T02:07:39.333Z,99.71
2024-03-16T02:07:59.292Z,99.71
2024-03-16T02:08:09.308Z,99.71
2024-03-16T02:08:19.308Z,99.71
2024-03-16T02:08:30.027Z,99.71
2024-03-16T02:08:39.281Z,99.71
2024-03-16T02:08:49.291Z,99.71
2024-03-16T02:09:09.277Z,99.71
2024-03-16T02:09:19.319Z,99.81
2024-03-16T02:09:29.298Z,99.81
2024-03-16T02:09:39.277Z,99.81
2024-03-16T02:09:49.282Z,99.81
2024-03-16T02:09:59.329Z,99.81
2024-03-16T02:10:10.815Z,99.81
2024-03-16T02:10:29.273Z,99.81
2024-03-16T02:10:39.347Z,99.81
2024-03-16T02:10:49.309Z,99.81
2024-03-16T02:10:59.299Z,99.81
2024-03-16T02:11:09.288Z,99.81
2024-03-16T02:11:19.316Z,99.81
2024-03-16T02:11:39.262Z,99.81
2024-03-16T02:11:49.256Z,99.81
2024-03-16T02:11:59.283Z,99.81
2024-03-16T02:12:09.254Z,99.81
2024-03-16T02:12:19.292Z,99.81
2024-03-16T02:12:29.282Z,99.81
2024-03-16T02:12:49.391Z,99.81
2024-03-16T02:12:59.309Z,99.81
2024-03-16T02:13:09.367Z,99.81
2024-03-16T02:13:20.058Z,99.81
2024-03-16T02:13:29.256Z,99.81
2024-03-16T02:13:39.249Z,99.81
2024-03-16T02:13:50.113Z,99.81
2024-03-16T02:14:09.261Z,99.81
2024-03-16T02:14:19.274Z,99.81
2024-03-16T02:14:29.280Z,99.91
2024-03-16T02:14:39.239Z,99.91
2024-03-16T02:14:49.246Z,99.91
2024-03-16T02:14:59.229Z,99.91
2024-03-16T02:15:09.268Z,99.91
2024-03-16T02:15:29.279Z,99.91
2024-03-16T02:15:39.262Z,99.91
2024-03-16T02:15:49.258Z,99.91
2024-03-16T02:15:59.283Z,99.91
2024-03-16T02:16:09.240Z,99.91
2024-03-16T02:16:19.226Z,99.91
2024-03-16T02:16:39.220Z,99.91
2024-03-16T02:16:49.280Z,99.91
2024-03-16T02:16:59.223Z,99.91
2024-03-16T02:17:09.218Z,99.91
2024-03-16T02:17:19.213Z,99.91
2024-03-16T02:17:29.290Z,99.91
2024-03-16T02:17:39.269Z,99.91
2024-03-16T02:17:49.332Z,99.91
2024-03-16T02:18:09.290Z,99.81
2024-03-16T02:18:19.216Z,99.81
2024-03-16T02:18:29.251Z,99.91
2024-03-16T02:18:39.238Z,99.91
2024-03-16T02:18:49.238Z,99.91
2024-03-16T02:18:59.233Z,99.91
2024-03-16T02:19:19.200Z,99.91
2024-03-16T02:19:29.202Z,99.91
2024-03-16T02:19:39.210Z,99.99
2024-03-16T02:19:49.213Z,99.99
2024-03-16T02:19:59.215Z,99.99
2024-03-16T02:20:10.024Z,99.99
2024-03-16T02:20:20.144Z,99.99
2024-03-16T02:20:30.150Z,99.91
2024-03-16T02:20:49.194Z,99.91
2024-03-16T02:20:59.188Z,99.91
2024-03-16T02:21:09.193Z,99.91
2024-03-16T02:21:19.202Z,99.91
2024-03-16T02:21:29.277Z,99.91
2024-03-16T02:21:39.235Z,99.99
2024-03-16T02:21:59.238Z,99.99
2024-03-16T02:22:09.209Z,99.99
2024-03-16T02:22:19.177Z,99.99
2024-03-16T02:22:29.232Z,99.99
2024-03-16T02:22:39.183Z,99.99
2024-03-16T02:22:49.765Z,99.99
2024-03-16T02:22:59.224Z,99.99
2024-03-16T02:23:19.175Z,99.99
2024-03-16T02:23:29.173Z,99.99
2024-03-16T02:23:39.166Z,99.99
2024-03-16T02:23:49.186Z,99.99
2024-03-16T02:23:59.160Z,99.99
2024-03-16T02:24:09.177Z,99.99
2024-03-16T02:24:29.201Z,99.99
2024-03-16T02:24:39.222Z,99.99
2024-03-16T02:24:49.202Z,99.99
2024-03-16T02:24:59.184Z,99.99
2024-03-16T02:25:09.261Z,99.99
2024-03-16T02:25:19.302Z,99.99
2024-03-16T02:25:39.212Z,99.99
2024-03-16T02:25:49.158Z,99.99
2024-03-16T02:25:59.177Z,99.99
2024-03-16T02:26:09.172Z,99.99
2024-03-16T02:26:19.158Z,99.99
2024-03-16T02:26:29.150Z,99.99
2024-03-16T02:26:49.176Z,99.99
2024-03-16T02:26:59.144Z,99.99
2024-03-16T02:27:09.168Z,99.99
2024-03-16T02:27:19.139Z,99.99
2024-03-16T02:27:29.172Z,99.99
2024-03-16T02:27:39.229Z,99.99
2024-03-16T02:27:49.204Z,99.99
2024-03-16T02:28:09.396Z,99.99
2024-03-16T02:28:19.135Z,99.99
2024-03-16T02:28:29.136Z,99.99
2024-03-16T02:28:39.140Z,99.99
2024-03-16T02:28:49.134Z,99.99
2024-03-16T02:28:59.129Z,99.99
2024-03-16T02:29:19.200Z,99.99
2024-03-16T02:29:29.134Z,99.99